Time;durP1;ratioP1;P1;durP2;ratioP2;P2;SDS_P1;SDS_P2;PMS_P1;PMS_P2;Temp;Humidity;BMP_temperature;BMP_pressure;BME280_temperature;BME280_humidity;BME280_pressure;Samples;Min_cycle;Max_cycle;Signal;HPM_P1;HPM_P2
2021/06/04 00:01:14;;;;;;;5.78;1.25;;;;;;;13.28;57.97;101423.75;4956339;28;20043;-46
2021/06/04 00:03:42;;;;;;;2.38;0.50;;;;;;;13.24;57.81;101426.41;4948927;28;20146;-45
2021/06/04 00:06:10;;;;;;;3.70;1.10;;;;;;;13.20;58.00;101435.81;4954693;28;20134;-45
2021/06/04 00:08:39;;;;;;;3.78;0.93;;;;;;;13.15;58.24;101433.25;4970259;28;20043;-46
2021/06/04 00:11:07;;;;;;;4.00;0.95;;;;;;;13.11;58.38;101438.69;4970332;28;20560;-44
2021/06/04 00:13:42;;;;;;;2.08;0.60;;;;;;;13.14;58.27;101442.75;4963121;28;20618;-44
2021/06/04 00:16:14;;;;;;;3.72;0.95;;;;;;;13.17;58.35;101436.50;4961192;28;20039;-47
2021/06/04 00:18:44;;;;;;;4.95;0.93;;;;;;;13.10;58.52;101436.25;4954032;28;20038;-45
2021/06/04 00:21:37;;;;;;;2.67;0.68;;;;;;;13.10;58.77;101450.97;4950455;28;20142;-43
2021/06/04 00:24:06;;;;;;;4.70;1.00;;;;;;;13.15;58.49;101438.81;4939596;29;20039;-44
2021/06/04 00:26:40;;;;;;;3.45;0.70;;;;;;;13.09;58.64;101443.78;4957022;28;20051;-44
2021/06/04 00:29:08;;;;;;;7.10;0.90;;;;;;;13.03;58.66;101438.75;4965170;28;20404;-46
2021/06/04 00:31:35;;;;;;;2.85;1.00;;;;;;;13.06;58.78;101443.63;4954482;28;20477;-46
2021/06/04 00:34:04;;;;;;;3.53;0.95;;;;;;;13.03;59.10;101447.09;4964238;28;20051;-44
2021/06/04 00:36:31;;;;;;;0.90;0.70;;;;;;;13.04;58.76;101440.38;4955308;28;20090;-43
2021/06/04 00:38:59;;;;;;;5.47;1.08;;;;;;;13.06;58.90;101435.28;4952140;29;20047;-47
2021/06/04 00:41:31;;;;;;;3.90;0.75;;;;;;;13.02;59.35;101451.03;4962482;28;20141;-47
2021/06/04 00:43:59;;;;;;;6.10;2.20;;;;;;;12.92;59.34;101430.03;4949347;28;20050;-44
2021/06/04 00:46:27;;;;;;;4.68;0.60;;;;;;;12.95;59.10;101443.25;4963541;28;20055;-46
2021/06/04 00:48:55;;;;;;;5.97;2.53;;;;;;;13.00;58.88;101442.25;4958987;28;20134;-45
2021/06/04 00:51:44;;;;;;;3.40;0.85;;;;;;;12.98;59.74;101430.63;4963199;28;20081;-47
2021/06/04 00:54:13;;;;;;;5.75;0.80;;;;;;;12.95;58.88;101426.56;4960434;28;20075;-44
2021/06/04 00:56:47;;;;;;;6.75;0.88;;;;;;;12.90;59.27;101428.75;4950501;29;20043;-46
2021/06/04 00:59:24;;;;;;;2.38;0.70;;;;;;;12.89;59.32;101435.50;4953096;28;20081;-46
2021/06/04 01:01:52;;;;;;;5.50;1.05;;;;;;;12.85;59.46;101435.38;4959720;28;20081;-47
2021/06/04 01:04:22;;;;;;;5.13;1.20;;;;;;;12.77;60.00;101439.88;4964354;28;20051;-42
2021/06/04 01:07:10;;;;;;;6.57;1.42;;;;;;;12.81;59.71;101432.44;4963602;28;20035;-43
2021/06/04 01:09:56;;;;;;;3.75;1.65;;;;;;;12.76;59.68;101424.34;4958151;28;20067;-46
2021/06/04 01:12:41;;;;;;;8.52;1.70;;;;;;;12.71;60.77;101441.22;4938868;29;20047;-43
2021/06/04 01:15:34;;;;;;;5.15;1.02;;;;;;;12.67;60.63;101437.53;4961412;28;20055;-46
2021/06/04 01:18:09;;;;;;;;;;;;;;;12.64;60.98;101427.09;4955881;28;20452;-45
2021/06/04 01:21:05;;;;;;;5.85;0.90;;;;;;;12.62;60.79;101429.41;4954912;28;19933;-45
2021/06/04 01:24:00;;;;;;;1.73;0.57;;;;;;;12.64;60.74;101432.66;4949801;28;20141;-44
2021/06/04 01:26:49;;;;;;;2.08;0.55;;;;;;;12.68;61.05;101427.22;4964995;28;20051;-48
2021/06/04 01:29:22;;;;;;;2.83;0.80;;;;;;;12.64;60.62;101429.06;4954111;28;20118;-44
2021/06/04 01:32:01;;;;;;;1.88;0.70;;;;;;;12.65;60.48;101434.28;4952806;28;20047;-46
2021/06/04 01:34:37;;;;;;;2.50;0.82;;;;;;;12.64;61.10;101429.88;4972529;28;20051;-43
2021/06/04 01:37:13;;;;;;;11.52;1.80;;;;;;;12.76;60.39;101441.00;4963106;28;20054;-45
2021/06/04 01:39:48;;;;;;;3.67;0.82;;;;;;;12.79;60.54;101436.72;4960341;28;20472;-44
2021/06/04 01:42:19;;;;;;;6.38;0.85;;;;;;;12.76;60.66;101438.22;4968231;28;20047;-45
2021/06/04 01:44:52;;;;;;;2.90;0.90;;;;;;;12.77;60.71;101431.53;4967355;28;20468;-45
2021/06/04 01:47:26;;;;;;;6.65;0.80;;;;;;;12.84;60.73;101439.28;4957264;28;20133;-44
2021/06/04 01:49:57;;;;;;;4.72;1.02;;;;;;;12.93;60.71;101440.00;4960441;28;20082;-42
2021/06/04 01:52:31;;;;;;;4.85;0.52;;;;;;;12.95;60.82;101439.66;4962268;28;20055;-43
2021/06/04 01:55:23;;;;;;;1.92;0.52;;;;;;;12.96;61.21;101441.28;4972299;28;20105;-45
2021/06/04 01:57:55;;;;;;;5.40;0.70;;;;;;;13.03;60.77;101436.78;4944354;28;20138;-46
2021/06/04 02:00:30;;;;;;;3.70;1.30;;;;;;;13.07;60.56;101442.50;4957294;28;20047;-48
2021/06/04 02:02:58;;;;;;;2.17;0.50;;;;;;;13.08;60.51;101438.59;4966021;28;20382;-44
2021/06/04 02:05:31;;;;;;;8.55;1.55;;;;;;;13.02;60.58;101445.47;4960929;28;20142;-43
2021/06/04 02:07:59;;;;;;;2.78;0.80;;;;;;;13.01;60.41;101441.06;4960252;28;20070;-44
2021/06/04 02:10:43;;;;;;;2.85;0.70;;;;;;;12.98;60.63;101447.31;4958419;28;20134;-45
2021/06/04 02:13:11;;;;;;;7.30;0.65;;;;;;;13.00;60.05;101448.59;4961739;28;20157;-44
2021/06/04 02:15:42;;;;;;;6.13;1.00;;;;;;;12.93;60.53;101441.97;4960431;28;20070;-47
2021/06/04 02:18:43;;;;;;;8.07;1.05;;;;;;;12.79;60.89;101443.09;4954676;28;20065;-47
2021/06/04 02:21:35;;;;;;;3.80;0.88;;;;;;;12.69;61.28;101440.75;4958044;28;20058;-45
2021/06/04 02:24:24;;;;;;;2.00;0.75;;;;;;;12.59;61.48;101441.19;4969423;28;20142;-44
2021/06/04 02:26:57;;;;;;;4.32;1.05;;;;;;;12.54;61.11;101441.41;4965210;28;20133;-51
2021/06/04 02:29:29;;;;;;;2.47;0.80;;;;;;;12.56;61.56;101436.31;4956093;28;20149;-45
2021/06/04 02:32:03;;;;;;;2.85;0.90;;;;;;;12.54;61.28;101435.84;4956926;28;20071;-48
2021/06/04 02:34:45;;;;;;;4.03;0.82;;;;;;;12.55;61.37;101431.91;4975287;28;20047;-44
2021/06/04 02:37:24;;;;;;;0.70;0.60;;;;;;;12.54;61.41;101437.81;4956903;28;20078;-47
2021/06/04 02:40:16;;;;;;;1.70;0.50;;;;;;;12.51;61.74;101433.75;4957948;28;20044;-45
2021/06/04 02:43:14;;;;;;;2.35;0.60;;;;;;;12.48;61.61;101434.44;4969690;28;20130;-45
2021/06/04 02:45:47;;;;;;;2.58;0.60;;;;;;;12.48;61.37;101437.22;4967395;28;20047;-43
2021/06/04 02:48:17;;;;;;;4.57;0.93;;;;;;;12.45;61.25;101442.63;4956996;28;20056;-44
2021/06/04 02:50:50;;;;;;;1.25;0.50;;;;;;;12.41;61.71;101441.69;4958021;28;20066;-44
2021/06/04 02:53:31;;;;;;;3.50;0.70;;;;;;;12.39;61.42;101449.56;4973934;28;20154;-46
2021/06/04 02:56:25;;;;;;;5.53;0.60;;;;;;;12.32;61.71;101444.53;4971487;28;20412;-44
2021/06/04 02:59:19;;;;;;;6.18;0.80;;;;;;;12.34;61.57;101447.78;4941786;28;20074;-44
2021/06/04 03:02:00;;;;;;;4.97;0.75;;;;;;;12.33;61.82;101450.91;4963204;28;20050;-45
2021/06/04 03:04:29;;;;;;;4.03;0.60;;;;;;;12.30;61.58;101446.84;4961094;28;20400;-45
2021/06/04 03:07:01;;;;;;;3.28;0.73;;;;;;;12.26;61.98;101447.88;4963936;28;20042;-44
2021/06/04 03:09:32;;;;;;;2.00;0.50;;;;;;;12.24;61.82;101445.44;4958102;28;20055;-45
2021/06/04 03:12:11;;;;;;;6.82;0.65;;;;;;;12.23;61.80;101451.34;4964438;28;20034;-47
2021/06/04 03:14:38;;;;;;;2.58;0.57;;;;;;;12.25;61.70;101447.06;4966005;28;20055;-43
2021/06/04 03:17:10;;;;;;;4.00;0.70;;;;;;;12.23;61.97;101452.94;4960673;28;20134;-43
2021/06/04 03:19:38;;;;;;;1.35;0.68;;;;;;;12.21;61.73;101449.69;4956149;28;20122;-46
2021/06/04 03:22:19;;;;;;;4.80;0.70;;;;;;;12.22;62.39;101439.41;4968909;28;20074;-48
2021/06/04 03:24:46;;;;;;;5.38;0.65;;;;;;;12.24;61.76;101442.66;4965684;28;20130;-44
2021/06/04 03:27:14;;;;;;;2.85;0.68;;;;;;;12.26;61.71;101445.91;4970072;28;20093;-44
2021/06/04 03:29:41;;;;;;;3.38;1.77;;;;;;;12.25;61.76;101443.47;4963548;28;20076;-44
2021/06/04 03:32:11;;;;;;;2.08;0.60;;;;;;;12.22;62.07;101439.41;4960782;28;20055;-45
2021/06/04 03:34:40;;;;;;;2.05;0.73;;;;;;;12.25;61.90;101438.75;4963413;28;20053;-43
2021/06/04 03:37:15;;;;;;;3.47;0.75;;;;;;;12.19;62.10;101440.09;4968134;28;20575;-45
2021/06/04 03:39:45;;;;;;;2.58;0.60;;;;;;;12.14;62.29;101437.53;4957665;28;20114;-43
2021/06/04 03:42:18;;;;;;;3.70;1.20;;;;;;;12.13;62.11;101442.25;4968016;28;20129;-46
2021/06/04 03:44:48;;;;;;;9.05;0.90;;;;;;;12.13;62.20;101444.22;4960855;28;20074;-43
2021/06/04 03:47:16;;;;;;;3.10;0.70;;;;;;;12.14;62.34;101443.88;4967353;28;20500;-48
2021/06/04 03:49:43;;;;;;;4.63;1.05;;;;;;;12.17;62.12;101447.94;4958391;28;20086;-43
2021/06/04 03:52:22;;;;;;;3.88;0.85;;;;;;;12.15;62.34;101447.47;4972521;28;20051;-49
2021/06/04 03:54:51;;;;;;;4.53;0.90;;;;;;;12.09;62.33;101454.38;4971316;28;20555;-44
2021/06/04 03:57:25;;;;;;;4.95;1.52;;;;;;;12.03;62.55;101450.16;4965414;28;20129;-45
2021/06/04 03:59:52;;;;;;;3.50;0.97;;;;;;;12.01;62.65;101456.06;4968109;28;20493;-46
2021/06/04 04:02:22;;;;;;;5.18;1.13;;;;;;;12.03;62.56;101452.94;4959687;28;20067;-46
2021/06/04 04:04:55;;;;;;;3.22;0.70;;;;;;;12.06;62.47;101455.06;4964987;28;20077;-46
2021/06/04 04:07:25;;;;;;;6.70;1.15;;;;;;;12.08;62.50;101456.34;4962569;28;20089;-43
2021/06/04 04:09:52;;;;;;;3.38;0.82;;;;;;;12.11;62.39;101454.84;4969023;28;20501;-46
2021/06/04 04:12:19;;;;;;;1.70;0.75;;;;;;;12.09;62.67;101460.75;4955603;28;20047;-44
2021/06/04 04:14:46;;;;;;;2.63;0.65;;;;;;;12.09;62.65;101465.47;4960786;28;20039;-44
2021/06/04 04:17:13;;;;;;;2.88;0.80;;;;;;;12.12;62.60;101464.81;4957910;28;20047;-45
2021/06/04 04:19:42;;;;;;;1.88;0.73;;;;;;;12.11;62.44;101465.94;4954014;28;20043;-44
2021/06/04 04:22:09;;;;;;;2.92;0.98;;;;;;;12.12;62.71;101467.59;4967898;28;20058;-45
2021/06/04 04:24:38;;;;;;;1.73;0.90;;;;;;;12.10;62.67;101459.56;4967223;28;20137;-46
2021/06/04 04:27:08;;;;;;;3.30;0.90;;;;;;;12.10;62.93;101461.53;4963242;28;20133;-45
2021/06/04 04:29:35;;;;;;;3.40;1.02;;;;;;;12.10;62.90;101459.56;4963879;28;20051;-47
2021/06/04 04:32:06;;;;;;;1.95;0.50;;;;;;;12.09;62.95;101463.53;4941858;28;20047;-47
2021/06/04 04:34:33;;;;;;;9.13;1.50;;;;;;;12.14;62.83;101459.72;4952474;28;20039;-46
2021/06/04 04:37:02;;;;;;;3.58;0.73;;;;;;;12.15;62.82;101458.59;4967749;28;20061;-46
2021/06/04 04:39:36;;;;;;;3.45;1.35;;;;;;;12.17;62.99;101459.06;4965151;28;20047;-48
2021/06/04 04:42:06;;;;;;;2.67;0.50;;;;;;;12.23;62.68;101468.00;4963090;28;20102;-47
2021/06/04 04:44:36;;;;;;;4.55;1.25;;;;;;;12.24;62.87;101473.19;4964964;28;20090;-47
2021/06/04 04:47:08;;;;;;;2.60;0.80;;;;;;;12.30;63.01;101465.47;4958013;28;20055;-47
2021/06/04 04:49:35;;;;;;;4.13;0.60;;;;;;;12.36;62.76;101464.13;4959227;28;20492;-44
2021/06/04 04:52:11;;;;;;;4.78;0.90;;;;;;;12.45;62.61;101471.22;4960692;28;20047;-43
2021/06/04 04:54:47;;;;;;;2.95;0.95;;;;;;;12.53;62.57;101470.34;4946345;28;20045;-48
2021/06/04 04:57:18;;;;;;;3.90;0.70;;;;;;;12.63;62.55;101483.78;4954573;28;20066;-47
2021/06/04 04:59:46;;;;;;;5.75;1.08;;;;;;;12.67;62.55;101473.63;4953499;28;20425;-44
2021/06/04 05:02:15;;;;;;;5.40;0.75;;;;;;;12.73;62.56;101477.81;4955393;28;20101;-44
2021/06/04 05:04:43;;;;;;;1.15;0.60;;;;;;;12.77;62.37;101486.28;4958154;28;20051;-46
2021/06/04 05:07:11;;;;;;;5.25;0.60;;;;;;;12.72;62.53;101478.97;4957859;28;20417;-45
2021/06/04 05:09:42;;;;;;;1.65;0.50;;;;;;;12.71;62.75;101482.91;4966213;28;20059;-49
2021/06/04 05:12:09;;;;;;;3.00;0.80;;;;;;;12.75;62.53;101485.81;4957992;28;20074;-44
2021/06/04 05:14:37;;;;;;;4.05;0.70;;;;;;;12.79;62.35;101489.53;4964977;28;20105;-47
2021/06/04 05:17:05;;;;;;;2.13;0.70;;;;;;;12.81;62.51;101484.47;4961857;28;20552;-45
2021/06/04 05:19:32;;;;;;;2.58;0.50;;;;;;;12.87;62.17;101487.84;4963338;28;20048;-44
2021/06/04 05:21:59;;;;;;;2.30;0.57;;;;;;;12.90;62.33;101489.91;4960168;28;20047;-43
2021/06/04 05:24:27;;;;;;;4.32;0.80;;;;;;;12.91;62.39;101483.19;4961889;28;20161;-44
2021/06/04 05:26:54;;;;;;;1.80;0.60;;;;;;;12.93;62.33;101498.38;4961887;28;20130;-43
2021/06/04 05:29:21;;;;;;;2.63;0.60;;;;;;;12.92;62.08;101491.19;4956205;28;20078;-46
2021/06/04 05:31:48;;;;;;;2.25;0.50;;;;;;;12.91;62.24;101494.31;4954571;28;20138;-45
2021/06/04 05:34:15;;;;;;;7.85;0.77;;;;;;;12.97;62.34;101509.63;4958322;28;20441;-45
2021/06/04 05:36:42;;;;;;;2.25;0.65;;;;;;;12.97;62.06;101506.84;4962059;28;20127;-44
2021/06/04 05:39:19;;;;;;;3.30;1.42;;;;;;;12.99;62.13;101507.31;4961472;28;20158;-47
2021/06/04 05:41:50;;;;;;;2.03;0.55;;;;;;;12.99;62.06;101518.44;4946476;28;20077;-46
2021/06/04 05:44:20;;;;;;;5.40;1.08;;;;;;;13.04;61.84;101509.88;4957131;28;20165;-47
2021/06/04 05:46:52;;;;;;;5.57;1.20;;;;;;;13.09;61.77;101512.47;4961982;28;20059;-48
2021/06/04 05:49:19;;;;;;;9.30;1.20;;;;;;;13.16;61.60;101519.09;4956107;28;20046;-44
2021/06/04 05:51:47;;;;;;;1.73;0.65;;;;;;;13.18;61.52;101515.97;4973949;28;20146;-47
2021/06/04 05:54:16;;;;;;;3.70;0.63;;;;;;;13.23;61.39;101511.00;4937065;28;20519;-45
2021/06/04 05:56:44;;;;;;;11.55;2.03;;;;;;;13.31;61.45;101514.84;4960802;28;20117;-46
2021/06/04 05:59:12;;;;;;;2.47;0.65;;;;;;;13.43;61.39;101517.63;4965443;28;20061;-46
2021/06/04 06:01:40;;;;;;;4.53;0.70;;;;;;;13.48;61.19;101514.63;4955701;28;20135;-46
2021/06/04 06:04:08;;;;;;;0.65;0.32;;;;;;;13.49;61.13;101521.81;4956276;28;20046;-50
2021/06/04 06:06:35;;;;;;;4.38;0.88;;;;;;;13.53;61.04;101522.75;4965734;28;20137;-46
2021/06/04 06:09:04;;;;;;;1.40;0.60;;;;;;;13.56;60.94;101516.50;4973458;28;20496;-43
2021/06/04 06:11:31;;;;;;;4.90;1.13;;;;;;;13.60;60.78;101527.75;4967030;28;20080;-50
2021/06/04 06:14:00;;;;;;;4.53;1.00;;;;;;;13.62;60.83;101526.25;4961630;28;20038;-46
2021/06/04 06:16:29;;;;;;;1.63;0.60;;;;;;;13.66;60.24;101521.59;4964468;28;20134;-49
2021/06/04 06:18:56;;;;;;;2.40;0.50;;;;;;;13.69;60.22;101523.69;4959513;28;20049;-46
2021/06/04 06:21:24;;;;;;;6.32;1.27;;;;;;;13.74;59.77;101523.44;4965604;28;20531;-45
2021/06/04 06:23:50;;;;;;;2.20;0.50;;;;;;;13.79;59.68;101525.22;4961383;28;20046;-47
2021/06/04 06:26:23;;;;;;;1.13;0.40;;;;;;;13.84;59.19;101534.16;4970629;28;20412;-46
2021/06/04 06:28:53;;;;;;;5.55;0.90;;;;;;;13.91;59.35;101528.81;4951861;28;20145;-48
2021/06/04 06:31:23;;;;;;;2.72;0.70;;;;;;;14.05;59.36;101536.78;4963510;28;20047;-42
2021/06/04 06:33:52;;;;;;;3.17;0.68;;;;;;;14.17;59.14;101538.75;4961021;28;20082;-47
2021/06/04 06:36:30;;;;;;;3.47;0.70;;;;;;;14.27;59.22;101541.06;4947489;28;20047;-46
2021/06/04 06:38:59;;;;;;;4.25;0.40;;;;;;;14.39;58.62;101543.84;4970898;28;20105;-46
2021/06/04 06:41:28;;;;;;;2.60;0.70;;;;;;;14.49;58.64;101538.59;4964936;28;20101;-46
2021/06/04 06:43:57;;;;;;;2.63;0.50;;;;;;;14.56;58.48;101544.38;4962912;28;20531;-44
2021/06/04 06:46:27;;;;;;;1.23;0.60;;;;;;;14.64;58.12;101550.97;4966164;28;20050;-47
2021/06/04 06:48:55;;;;;;;2.90;0.60;;;;;;;14.72;57.69;101547.22;4968469;28;20063;-43
2021/06/04 06:51:23;;;;;;;3.25;0.60;;;;;;;14.83;56.87;101545.56;4971624;28;20055;-44
2021/06/04 06:53:56;;;;;;;2.72;0.50;;;;;;;14.93;56.43;101547.84;4942161;28;20053;-44
2021/06/04 06:56:23;;;;;;;1.80;0.47;;;;;;;15.09;56.65;101556.28;4957173;28;20488;-47
2021/06/04 06:58:49;;;;;;;2.17;0.45;;;;;;;15.26;56.34;101555.94;4954486;28;20582;-45
2021/06/04 07:01:16;;;;;;;3.63;0.32;;;;;;;15.42;55.84;101554.00;4953746;28;20138;-44
2021/06/04 07:03:45;;;;;;;2.92;0.40;;;;;;;15.51;55.18;101551.88;4951725;28;20058;-44
2021/06/04 07:06:16;;;;;;;0.80;0.50;;;;;;;15.59;54.29;101559.28;4951237;28;20106;-45
2021/06/04 07:08:43;;;;;;;1.13;0.50;;;;;;;15.67;54.72;101558.25;4953618;28;20094;-45
2021/06/04 07:11:11;;;;;;;3.90;0.38;;;;;;;15.70;54.33;101570.72;4953879;28;20074;-44
2021/06/04 07:13:38;;;;;;;1.58;0.40;;;;;;;15.73;53.66;101561.59;4953370;28;20409;-46
2021/06/04 07:16:07;;;;;;;1.83;0.80;;;;;;;15.81;53.12;101569.78;4954164;28;20077;-44
2021/06/04 07:18:36;;;;;;;1.17;0.43;;;;;;;15.83;53.21;101569.44;4953379;28;20074;-44
2021/06/04 07:21:03;;;;;;;2.42;0.93;;;;;;;15.83;52.96;101570.25;4952790;28;20129;-48
2021/06/04 07:23:30;;;;;;;2.22;0.47;;;;;;;15.84;52.74;101571.06;4954541;28;20155;-46
2021/06/04 07:25:58;;;;;;;1.85;0.52;;;;;;;15.79;52.79;101569.34;4941139;28;20074;-45
2021/06/04 07:28:37;;;;;;;1.30;0.40;;;;;;;15.77;53.00;101584.84;4953263;28;20049;-47
2021/06/04 07:31:09;;;;;;;1.75;0.50;;;;;;;15.86;53.25;101587.47;4953322;29;20051;-46
2021/06/04 07:33:42;;;;;;;1.70;0.50;;;;;;;15.87;53.12;101581.50;4952791;28;20594;-46
2021/06/04 07:36:14;;;;;;;2.17;0.40;;;;;;;15.87;53.31;101587.09;4951859;28;20154;-50
2021/06/04 07:38:41;;;;;;;2.72;0.98;;;;;;;15.99;53.76;101583.41;4952745;29;20134;-44
2021/06/04 07:41:08;;;;;;;1.25;0.40;;;;;;;16.13;54.31;101587.34;4953597;28;20126;-45
2021/06/04 07:43:39;;;;;;;3.03;0.63;;;;;;;16.35;54.67;101591.47;4953053;28;20505;-45
2021/06/04 07:46:08;;;;;;;3.15;0.60;;;;;;;16.72;54.85;101583.53;4953642;28;20051;-45
2021/06/04 07:48:36;;;;;;;1.80;0.47;;;;;;;17.15;54.73;101588.84;4962593;28;20097;-46
2021/06/04 07:51:08;;;;;;;3.58;0.70;;;;;;;17.63;54.37;101584.59;4968453;28;20089;-47
2021/06/04 07:53:36;;;;;;;3.42;0.32;;;;;;;18.17;53.65;101593.53;4962304;28;20047;-45
2021/06/04 07:56:04;;;;;;;1.85;0.55;;;;;;;18.74;52.21;101586.78;4963122;28;20043;-48
2021/06/04 07:58:31;;;;;;;3.28;0.45;;;;;;;19.35;51.28;101583.50;4951926;28;20047;-50
2021/06/04 08:01:00;;;;;;;1.95;0.60;;;;;;;19.86;49.63;101583.66;4952916;29;20059;-46
2021/06/04 08:03:28;;;;;;;1.60;0.38;;;;;;;20.35;48.54;101582.47;4937779;29;20059;-47
2021/06/04 08:05:58;;;;;;;2.53;0.30;;;;;;;20.74;47.29;101594.75;4949998;28;20503;-51
2021/06/04 08:08:28;;;;;;;0.73;0.32;;;;;;;20.91;46.40;101584.81;4949264;28;20050;-48
2021/06/04 08:10:56;;;;;;;1.13;0.40;;;;;;;21.17;45.64;101585.34;4954546;28;20043;-48
2021/06/04 08:13:24;;;;;;;1.33;0.40;;;;;;;21.64;44.71;101591.88;4963687;28;20075;-48
2021/06/04 08:16:00;;;;;;;3.78;0.50;;;;;;;21.89;42.89;101598.41;4951050;28;20043;-47
2021/06/04 08:18:34;;;;;;;1.13;0.63;;;;;;;22.19;42.40;101595.97;4954065;28;20144;-50
2021/06/04 08:21:06;;;;;;;2.15;0.40;;;;;;;22.41;41.77;101593.94;4953998;28;20051;-47
2021/06/04 08:23:39;;;;;;;4.38;0.98;;;;;;;22.67;41.33;101592.69;4956523;28;20074;-47
2021/06/04 08:26:14;;;;;;;2.13;0.30;;;;;;;23.08;41.04;101590.16;4955171;28;20105;-48
2021/06/04 08:28:41;;;;;;;1.83;0.82;;;;;;;23.43;40.11;101590.78;4954802;28;20158;-46
2021/06/04 08:31:07;;;;;;;5.20;1.02;;;;;;;23.73;39.07;101586.56;4954246;28;20043;-47
2021/06/04 08:33:38;;;;;;;1.00;0.50;;;;;;;23.79;38.58;101577.22;4957689;28;20047;-48
2021/06/04 08:36:09;;;;;;;6.95;0.93;;;;;;;23.95;38.22;101577.50;4954094;28;20054;-46
2021/06/04 08:38:39;;;;;;;1.77;0.40;;;;;;;24.23;38.36;101580.13;4952122;28;20071;-49
2021/06/04 08:41:11;;;;;;;1.08;0.40;;;;;;;24.14;36.28;101585.47;4955147;28;20090;-53
2021/06/04 08:43:50;;;;;;;1.48;0.40;;;;;;;24.02;36.21;101583.09;4949704;28;20125;-45
2021/06/04 08:46:33;;;;;;;2.47;0.45;;;;;;;23.63;35.88;101586.25;4953161;28;20063;-50
2021/06/04 08:49:21;;;;;;;0.85;0.30;;;;;;;23.09;36.92;101588.94;4951574;28;20039;-45
2021/06/04 08:52:01;;;;;;;2.30;0.38;;;;;;;22.56;36.80;101583.44;4959155;28;20055;-46
2021/06/04 08:54:43;;;;;;;3.75;0.55;;;;;;;22.00;37.87;101589.94;4954301;28;20062;-47
2021/06/04 08:57:24;;;;;;;1.80;0.40;;;;;;;21.35;38.50;101584.56;4951891;28;20078;-45
2021/06/04 08:59:55;;;;;;;0.73;0.40;;;;;;;20.60;38.89;101598.31;4950814;29;20512;-44
2021/06/04 09:02:42;;;;;;;1.00;0.30;;;;;;;20.07;40.42;101594.25;4951426;29;20040;-45
2021/06/04 09:05:21;;;;;;;1.65;0.40;;;;;;;19.66;41.07;101601.94;4948487;28;20057;-50
2021/06/04 09:07:51;;;;;;;1.13;0.30;;;;;;;19.31;41.21;101593.91;4943848;29;20437;-45
2021/06/04 09:10:23;;;;;;;3.60;0.50;;;;;;;19.18;41.65;101597.38;4950723;29;20062;-44
2021/06/04 09:13:00;;;;;;;4.55;0.50;;;;;;;19.12;42.11;101596.06;4952231;29;20452;-44
2021/06/04 09:15:32;;;;;;;3.72;1.08;;;;;;;18.97;42.53;101597.09;4952822;28;20089;-45
2021/06/04 09:18:05;;;;;;;3.40;0.43;;;;;;;19.01;42.62;101600.78;4965672;28;20134;-44
2021/06/04 09:20:53;;;;;;;1.42;0.30;;;;;;;19.03;43.14;101602.00;4950880;28;20134;-46
2021/06/04 09:23:33;;;;;;;2.05;0.52;;;;;;;19.06;43.27;101600.44;4947709;28;20441;-46
2021/06/04 09:26:01;;;;;;;2.55;0.50;;;;;;;19.16;43.03;101594.13;4949603;28;20043;-44
2021/06/04 09:29:07;;;;;;;4.03;0.40;;;;;;;19.26;42.90;101594.25;4944694;28;20102;-45
2021/06/04 09:31:50;;;;;;;1.98;0.55;;;;;;;19.66;43.04;101601.94;4945943;28;20086;-43
2021/06/04 09:34:25;;;;;;;2.78;0.45;;;;;;;20.05;42.53;101608.72;4950058;29;20050;-46
2021/06/04 09:37:09;;;;;;;2.25;0.50;;;;;;;20.53;42.84;101608.72;4952283;28;20054;-44
2021/06/04 09:39:48;;;;;;;3.05;0.60;;;;;;;21.12;41.89;101596.19;4940135;29;20458;-45
2021/06/04 09:42:31;;;;;;;2.88;0.52;;;;;;;21.27;41.39;101602.66;4950065;28;20070;-45
2021/06/04 09:45:05;;;;;;;2.05;0.60;;;;;;;21.13;41.64;101607.03;4960918;28;20061;-46
2021/06/04 09:47:33;;;;;;;2.22;0.30;;;;;;;21.16;41.73;101600.63;4953890;28;20133;-49
2021/06/04 09:50:29;;;;;;;3.80;0.50;;;;;;;21.50;40.84;101592.66;4929456;28;20078;-48
2021/06/04 09:53:11;;;;;;;5.65;0.60;;;;;;;21.82;40.00;101592.72;4925435;29;20058;-45
2021/06/04 09:55:44;;;;;;;0.98;0.40;;;;;;;21.94;39.95;101586.72;4958097;28;20051;-52
2021/06/04 09:58:14;;;;;;;3.65;0.68;;;;;;;22.17;39.28;101589.94;4939206;28;20117;-45
2021/06/04 10:00:49;;;;;;;4.97;0.50;;;;;;;22.48;38.66;101595.97;4959257;28;20054;-45
2021/06/04 10:03:22;;;;;;;0.90;0.28;;;;;;;22.67;38.00;101585.03;4958592;28;20109;-46
2021/06/04 10:06:08;;;;;;;2.05;0.30;;;;;;;22.62;37.74;101593.09;4957222;28;20054;-44
2021/06/04 10:08:46;;;;;;;2.67;0.98;;;;;;;22.60;36.62;101584.22;4956675;28;20047;-44
2021/06/04 10:11:18;;;;;;;2.75;0.80;;;;;;;22.23;37.47;101582.69;4950034;28;20130;-51
2021/06/04 10:13:54;;;;;;;1.02;0.30;;;;;;;22.35;37.76;101582.25;4965895;28;20035;-44
2021/06/04 10:16:48;;;;;;;1.17;0.30;;;;;;;22.69;36.58;101584.66;4952475;28;20075;-49
2021/06/04 10:19:45;;;;;;;1.02;0.25;;;;;;;22.83;35.77;101587.41;4950130;28;20047;-47
2021/06/04 10:22:27;;;;;;;4.18;0.50;;;;;;;22.86;36.32;101586.59;4964327;28;20449;-49
2021/06/04 10:25:14;;;;;;;;;;;;;;;22.83;36.55;101590.22;4949993;28;20130;-47
2021/06/04 10:27:46;;;;;;;2.55;0.45;;;;;;;23.06;36.79;101584.13;4950022;28;19922;-47
2021/06/04 10:30:13;;;;;;;0.85;0.28;;;;;;;23.18;36.83;101583.63;4955212;28;20051;-47
2021/06/04 10:33:02;;;;;;;2.55;0.28;;;;;;;23.30;36.64;101586.00;4954620;28;20139;-49
2021/06/04 10:35:38;;;;;;;1.27;0.40;;;;;;;23.32;35.51;101584.38;4948729;28;20044;-47
2021/06/04 10:38:21;;;;;;;1.60;0.32;;;;;;;23.26;35.88;101582.38;4947342;28;20820;-47
2021/06/04 10:40:53;;;;;;;4.60;0.50;;;;;;;23.26;35.93;101571.09;4952507;28;20047;-46
2021/06/04 10:43:58;;;;;;;3.28;1.17;;;;;;;23.30;34.56;101578.31;4954641;28;20050;-47
2021/06/04 10:46:37;;;;;;;0.55;0.20;;;;;;;23.12;35.61;101571.16;4949014;28;20051;-45
2021/06/04 10:49:23;;;;;;;6.23;0.70;;;;;;;22.97;36.19;101584.53;4952835;28;20055;-46
2021/06/04 10:51:59;;;;;;;5.57;1.02;;;;;;;22.77;39.38;101572.13;4955995;28;20915;-47
2021/06/04 10:54:47;;;;;;;5.32;0.80;;;;;;;22.62;41.60;101584.63;4936172;29;20465;-46
2021/06/04 10:57:29;;;;;;;3.90;1.42;;;;;;;22.59;43.42;101579.78;4953791;28;20039;-48
2021/06/04 11:00:03;;;;;;;6.40;1.45;;;;;;;22.43;43.18;101577.41;4957719;28;20511;-44
2021/06/04 11:02:32;;;;;;;7.00;1.27;;;;;;;22.31;43.86;101586.31;4961929;28;20102;-45
2021/06/04 11:05:52;;;;;;;7.63;1.10;;;;;;;22.10;44.77;101575.84;4959645;28;20051;-45
2021/06/04 11:08:37;;;;;;;3.03;0.80;;;;;;;21.94;43.63;101583.91;4943867;28;20046;-44
2021/06/04 11:11:19;;;;;;;6.57;0.90;;;;;;;21.71;42.85;101575.00;4973222;28;20070;-47
2021/06/04 11:14:17;;;;;;;3.95;0.73;;;;;;;21.72;43.91;101577.41;4964915;28;20138;-54
2021/06/04 11:17:03;;;;;;;3.40;1.00;;;;;;;21.62;44.68;101583.03;4958014;28;20082;-49
2021/06/04 11:19:45;;;;;;;6.30;1.20;;;;;;;21.33;46.37;101587.00;4949821;28;20047;-49
2021/06/04 11:22:19;;;;;;;6.28;1.23;;;;;;;21.35;46.61;101584.56;4957255;28;20055;-45
2021/06/04 11:24:49;;;;;;;5.65;1.00;;;;;;;21.21;46.42;101579.72;4964224;28;20043;-45
2021/06/04 11:27:28;;;;;;;3.72;0.73;;;;;;;21.10;46.77;101579.66;4936033;29;20049;-45
2021/06/04 11:29:55;;;;;;;4.22;0.93;;;;;;;21.00;46.72;101588.84;4938499;29;20065;-44
2021/06/04 11:32:28;;;;;;;8.15;1.67;;;;;;;20.81;46.96;101589.16;4949624;29;20051;-51
2021/06/04 11:34:55;;;;;;;4.78;1.00;;;;;;;20.60;46.95;101603.13;4954007;28;20035;-44
2021/06/04 11:37:34;;;;;;;6.50;0.90;;;;;;;20.37;47.77;101591.31;4962817;28;20101;-45
2021/06/04 11:40:31;;;;;;;4.32;1.15;;;;;;;20.36;48.25;101589.72;4960040;28;20058;-45
2021/06/04 11:43:14;;;;;;;5.82;1.17;;;;;;;20.67;48.02;101580.66;4972655;28;20066;-47
2021/06/04 11:45:44;;;;;;;7.05;1.20;;;;;;;20.81;47.88;101583.53;4964017;28;20505;-46
2021/06/04 11:48:38;;;;;;;5.32;0.90;;;;;;;20.62;48.58;101584.63;4962074;28;20130;-45
2021/06/04 11:51:18;;;;;;;4.10;1.02;;;;;;;20.60;48.67;101592.69;4952598;28;20066;-50
2021/06/04 11:54:17;;;;;;;5.38;1.00;;;;;;;20.72;48.40;101590.72;4964902;28;20050;-47
2021/06/04 11:56:57;;;;;;;4.57;1.17;;;;;;;20.72;48.85;101590.72;4954965;28;20149;-49
2021/06/04 11:59:47;;;;;;;7.45;1.40;;;;;;;20.44;49.28;101597.78;4942562;29;20501;-46